Accueil
METAR-TAF:

METAR-TAF

Aéroports :

Aéroport de Dakhla

Dakhla, Maroc

latitude: 23-43-05N, longitude: 015-55-55W, altitude: 11 m

Observation

Le bulletin a été fait il y a 27 minutes, à 15:00 UTC
Vent 15 kt de nord
Température 19°C
Humidité 60%
Pression 1014 hPa
Visibilité: 8000 m

METAR: GMMH 271500Z 01015KT 8000 NSC 19/11 Q1014 NOSIG

Heure: 16:27 (15:27 UTC)

Prévision

Le bulletin a été fait il y a 4 heures et 27 minutes, à 11:00 UTC
Prévision valable du 27 à 12 UTC au 28 à 18 UTC
Vent 11 kt de est/nord-est
Visibilité: 8000 m
Probabilité 40%
du 28 à 00 UTC au 28 à 09 UTC
Visibilité: 2000 m
brume

TAF: GMMH 271100Z 2712/2818 06011KT 8000 NSC PROB40 2800/2809 2000 BR

Observations et prévisions météorologiques de plus de 4000 aéroports (messages METAR et TAF).

Les stations disponibles sont représentées par des disques jaunes et rouges sur la carte.

Passer la souris dessus pour voir le nom de la station.

Cliquer dessus pour voir les observations et prévisions météorologiques.

Pour changer de carte: cliquez sur les boutons verts avec une croix noire pour zoomer, sur le bouton vert avec un tiret pour effectuer un zoom arrière, ou sur les flèches vertes pour les cartes adjacentes.


METAR-TAF: